Time;durP1;ratioP1;P1;durP2;ratioP2;P2;SDS_P1;SDS_P2;PMS_P1;PMS_P2;Temp;Humidity;BMP_temperature;BMP_pressure;BME280_temperature;BME280_humidity;BME280_pressure;Samples;Min_cycle;Max_cycle;Signal;HPM_P1;HPM_P2
2023/07/07 00:01:31;;;;;;;;;;;;;;;14.81;72.87;101801.63;107819;1254;72458;-80
2023/07/07 00:03:58;;;;;;;;;;;;;;;14.76;72.87;101800.28;108007;1254;61984;-79
2023/07/07 00:06:25;;;;;;;;;;;;;;;14.72;72.83;101795.94;107842;1254;124965;-79
2023/07/07 00:08:52;;;;;;;;;;;;;;;14.67;72.88;101797.76;108046;1254;75013;-80
2023/07/07 00:11:19;;;;;;;;;;;;;;;14.63;72.87;101796.23;107984;1253;125371;-80
2023/07/07 00:13:46;;;;;;;;;;;;;;;14.59;72.94;101795.77;107986;1256;72514;-80
2023/07/07 00:16:14;;;;;;;;;;;;;;;14.54;73.00;101798.63;107656;1254;60232;-80
2023/07/07 00:18:40;;;;;;;;;;;;;;;14.49;72.96;101798.69;107611;1257;125167;-80
2023/07/07 00:21:07;;;;;;;;;;;;;;;14.45;73.07;101798.91;107953;1254;74454;-80
2023/07/07 00:23:38;;;;;;;;;;;;;;;14.40;73.10;101800.39;107747;1257;124897;-80
2023/07/07 00:26:06;;;;;;;;;;;;;;;14.35;73.12;101801.85;107924;1256;70818;-80
2023/07/07 00:28:33;;;;;;;;;;;;;;;14.31;73.19;101799.27;107667;1256;124997;-80
2023/07/07 00:31:00;;;;;;;;;;;;;;;14.26;73.19;101798.45;107687;1255;60886;-80
2023/07/07 00:33:27;;;;;;;;;;;;;;;14.21;73.22;101796.71;107563;1256;74416;-80
2023/07/07 00:35:54;;;;;;;;;;;;;;;14.17;73.35;101797.48;107687;1257;125249;-80
2023/07/07 00:38:21;;;;;;;;;;;;;;;14.13;73.36;101797.56;107418;1256;71410;-79
2023/07/07 00:40:50;;;;;;;;;;;;;;;14.09;73.45;101796.58;107764;1255;125460;-80
2023/07/07 00:43:17;;;;;;;;;;;;;;;14.05;73.50;101799.63;107740;1255;61144;-80
2023/07/07 00:45:44;;;;;;;;;;;;;;;14.01;73.50;101800.56;108032;1256;74712;-80
2023/07/07 00:48:18;;;;;;;;;;;;;;;13.97;73.48;101800.48;107732;1254;125359;-79
2023/07/07 00:50:47;;;;;;;;;;;;;;;13.94;73.59;101802.31;107755;1257;72401;-79
2023/07/07 00:53:14;;;;;;;;;;;;;;;13.90;73.54;101801.35;107668;1257;125536;-79
2023/07/07 00:55:45;;;;;;;;;;;;;;;13.87;73.72;101800.91;107955;1254;59971;-80
2023/07/07 00:58:12;;;;;;;;;;;;;;;13.85;73.68;101802.08;107888;1256;73485;-79
2023/07/07 01:00:40;;;;;;;;;;;;;;;13.83;73.68;101806.06;107982;1254;125485;-79
2023/07/07 01:03:09;;;;;;;;;;;;;;;13.79;73.81;101802.28;108205;1254;73287;-79
2023/07/07 01:05:37;;;;;;;;;;;;;;;13.78;73.84;101802.94;107814;1256;125173;-79
2023/07/07 01:08:06;;;;;;;;;;;;;;;13.75;73.88;101808.84;107946;1257;59354;-79
2023/07/07 01:10:33;;;;;;;;;;;;;;;13.72;73.85;101811.41;107537;1257;125003;-79
2023/07/07 01:13:00;;;;;;;;;;;;;;;13.70;73.92;101807.64;107581;1257;67583;-79
2023/07/07 01:15:28;;;;;;;;;;;;;;;13.68;73.83;101806.52;107790;1256;71227;-79
2023/07/07 01:18:04;;;;;;;;;;;;;;;13.65;73.86;101806.95;107613;1258;125195;-79
2023/07/07 01:21:00;;;;;;;;;;;;;;;13.60;73.89;101805.06;108102;1254;61673;-79
2023/07/07 01:23:33;;;;;;;;;;;;;;;13.55;73.93;101804.38;108108;1255;125372;-79
2023/07/07 01:26:04;;;;;;;;;;;;;;;13.52;74.00;101805.88;107536;1260;67123;-80
2023/07/07 01:28:43;;;;;;;;;;;;;;;13.48;74.08;101802.59;107640;1254;125016;-79
2023/07/07 01:31:15;;;;;;;;;;;;;;;13.45;74.07;101801.45;107802;1258;60567;-79
2023/07/07 01:33:42;;;;;;;;;;;;;;;13.43;74.32;101801.58;107569;1257;61302;-79
2023/07/07 01:36:09;;;;;;;;;;;;;;;13.41;74.24;101801.16;108191;1254;125312;-79
2023/07/07 01:38:40;;;;;;;;;;;;;;;13.38;74.29;101800.20;108263;1254;65589;-79
2023/07/07 01:41:13;;;;;;;;;;;;;;;13.37;74.28;101801.54;107961;1256;125356;-79
2023/07/07 01:43:59;;;;;;;;;;;;;;;13.34;74.40;101797.40;108199;1255;60925;-80
2023/07/07 01:46:26;;;;;;;;;;;;;;;13.34;74.34;101800.21;107705;1254;59335;-79
2023/07/07 01:49:02;;;;;;;;;;;;;;;13.32;74.32;101798.58;107645;1255;125160;-79
2023/07/07 01:51:31;;;;;;;;;;;;;;;13.30;74.37;101803.08;107745;1256;66835;-79
2023/07/07 01:53:58;;;;;;;;;;;;;;;13.28;74.30;101807.23;107875;1254;73251;-80
2023/07/07 01:56:26;;;;;;;;;;;;;;;13.25;74.33;101807.48;107725;1254;59575;-80
2023/07/07 01:58:53;;;;;;;;;;;;;;;13.21;74.33;101802.98;107628;1257;125506;-80
2023/07/07 02:01:20;;;;;;;;;;;;;;;13.20;74.44;101804.52;107790;1254;74741;-80
2023/07/07 02:03:47;;;;;;;;;;;;;;;13.18;74.44;101805.36;107696;1255;67044;-80
2023/07/07 02:06:14;;;;;;;;;;;;;;;13.16;74.41;101803.35;107618;1259;124930;-79
2023/07/07 02:08:41;;;;;;;;;;;;;;;13.16;74.51;101807.23;108002;1256;59612;-79
2023/07/07 02:11:07;;;;;;;;;;;;;;;13.14;74.51;101813.35;107766;1258;124980;-79
2023/07/07 02:13:35;;;;;;;;;;;;;;;13.12;74.43;101813.63;107800;1259;74682;-79
2023/07/07 02:16:02;;;;;;;;;;;;;;;13.11;74.49;101813.94;107641;1255;65243;-80
2023/07/07 02:18:29;;;;;;;;;;;;;;;13.11;74.59;101813.59;107460;1254;125227;-80
2023/07/07 02:20:56;;;;;;;;;;;;;;;13.11;74.56;101815.17;107878;1254;59763;-80
2023/07/07 02:23:23;;;;;;;;;;;;;;;13.11;74.57;101812.88;107610;1254;125695;-80
2023/07/07 02:25:50;;;;;;;;;;;;;;;13.10;74.61;101808.64;107812;1254;74703;-80
2023/07/07 02:28:16;;;;;;;;;;;;;;;13.11;74.67;101809.69;108069;1254;67318;-80
2023/07/07 02:30:45;;;;;;;;;;;;;;;13.11;74.58;101813.77;107734;1254;125365;-80
2023/07/07 02:33:12;;;;;;;;;;;;;;;13.11;74.53;101813.77;107605;1255;60532;-81
2023/07/07 02:35:39;;;;;;;;;;;;;;;13.11;74.57;101814.30;107519;1254;124813;-81
2023/07/07 02:38:06;;;;;;;;;;;;;;;13.13;74.66;101815.92;108027;1253;74693;-79
2023/07/07 02:40:33;;;;;;;;;;;;;;;13.16;74.71;101814.10;108023;1254;67081;-79
2023/07/07 02:43:00;;;;;;;;;;;;;;;13.18;74.75;101810.64;107618;1253;124780;-83
2023/07/07 02:45:29;;;;;;;;;;;;;;;13.22;74.72;101815.71;107322;1253;60437;-83
2023/07/07 02:47:56;;;;;;;;;;;;;;;13.28;74.69;101817.27;107925;1254;125312;-83
2023/07/07 02:50:26;;;;;;;;;;;;;;;13.33;74.81;101814.82;107604;1256;74415;-83
2023/07/07 02:52:53;;;;;;;;;;;;;;;13.39;74.86;101818.20;107446;1258;125029;-80
2023/07/07 02:55:20;;;;;;;;;;;;;;;13.45;74.76;101820.30;107548;1254;72830;-79
2023/07/07 02:57:46;;;;;;;;;;;;;;;13.51;74.80;101821.36;107652;1258;61192;-79
2023/07/07 03:00:14;;;;;;;;;;;;;;;13.57;74.76;101820.67;107564;1258;125017;-79
2023/07/07 03:02:42;;;;;;;;;;;;;;;13.64;74.71;101825.46;107655;1257;74698;-80
2023/07/07 03:05:09;;;;;;;;;;;;;;;13.71;74.62;101823.55;107572;1254;124967;-80
2023/07/07 03:07:36;;;;;;;;;;;;;;;13.79;74.54;101823.95;107827;1254;72727;-80
2023/07/07 03:10:05;;;;;;;;;;;;;;;13.86;74.50;101820.45;107892;1257;59540;-79
2023/07/07 03:12:32;;;;;;;;;;;;;;;13.96;74.38;101822.67;107876;1254;124989;-79
2023/07/07 03:14:59;;;;;;;;;;;;;;;14.04;74.17;101824.14;107782;1254;73439;-79
2023/07/07 03:17:29;;;;;;;;;;;;;;;14.12;74.15;101825.77;107994;1254;125231;-79
2023/07/07 03:19:56;;;;;;;;;;;;;;;14.20;74.05;101827.23;108400;1258;72689;-80
2023/07/07 03:22:23;;;;;;;;;;;;;;;14.33;73.94;101828.45;108202;1254;59552;-80
2023/07/07 03:24:50;;;;;;;;;;;;;;;14.45;73.82;101832.47;107788;1255;124121;-80
2023/07/07 03:27:17;;;;;;;;;;;;;;;14.57;73.84;101833.00;107825;1254;74686;-79
2023/07/07 03:29:44;;;;;;;;;;;;;;;14.75;73.90;101831.34;107951;1254;124516;-80
2023/07/07 03:32:11;;;;;;;;;;;;;;;15.00;73.90;101833.18;108043;1259;71486;-80
2023/07/07 03:34:41;;;;;;;;;;;;;;;15.25;73.36;101834.31;107893;1254;125358;-80
2023/07/07 03:37:07;;;;;;;;;;;;;;;15.36;72.80;101838.27;107856;1257;60213;-80
2023/07/07 03:39:34;;;;;;;;;;;;;;;15.40;72.36;101839.78;108289;1254;74655;-80
2023/07/07 03:42:01;;;;;;;;;;;;;;;15.43;71.99;101843.05;108026;1258;124141;-80
2023/07/07 03:44:28;;;;;;;;;;;;;;;15.45;71.78;101847.52;107689;1254;72584;-80
2023/07/07 03:46:55;;;;;;;;;;;;;;;15.50;71.65;101849.72;107559;1256;124243;-80
2023/07/07 03:49:22;;;;;;;;;;;;;;;15.61;71.83;101852.45;107968;1254;62123;-80
2023/07/07 03:51:49;;;;;;;;;;;;;;;15.95;71.79;101858.15;108094;1254;74702;-80
2023/07/07 03:54:16;;;;;;;;;;;;;;;16.34;71.36;101852.20;108127;1254;124542;-80
2023/07/07 03:56:43;;;;;;;;;;;;;;;16.93;70.95;101853.26;108017;1254;72647;-80
2023/07/07 03:59:10;;;;;;;;;;;;;;;18.14;71.54;101851.38;107821;1253;125047;-80
2023/07/07 04:01:37;;;;;;;;;;;;;;;19.99;71.42;101847.13;107848;1255;61693;-80
2023/07/07 04:04:04;;;;;;;;;;;;;;;22.05;69.77;101842.02;108037;1254;73337;-80
2023/07/07 04:06:31;;;;;;;;;;;;;;;23.99;67.57;101842.84;108041;1254;125164;-80
2023/07/07 04:08:58;;;;;;;;;;;;;;;25.86;65.05;101849.92;107957;1254;72598;-80
2023/07/07 04:11:25;;;;;;;;;;;;;;;27.54;62.01;101854.33;107728;1255;124354;-80
2023/07/07 04:13:52;;;;;;;;;;;;;;;28.92;59.01;101853.35;107968;1255;59852;-80
2023/07/07 04:16:20;;;;;;;;;;;;;;;29.94;56.44;101857.10;107738;1254;64781;-80
2023/07/07 04:18:47;;;;;;;;;;;;;;;30.84;53.78;101860.94;108032;1257;124685;-80
2023/07/07 04:21:15;;;;;;;;;;;;;;;31.56;51.27;101865.98;108039;1254;63809;-79
2023/07/07 04:23:42;;;;;;;;;;;;;;;32.21;49.01;101871.50;108187;1254;124090;-79
2023/07/07 04:26:09;;;;;;;;;;;;;;;32.60;47.53;101873.45;108274;1257;59284;-79
2023/07/07 04:28:36;;;;;;;;;;;;;;;32.14;45.09;101871.83;108217;1257;124787;-79
2023/07/07 04:31:03;;;;;;;;;;;;;;;30.61;44.36;101873.60;108099;1255;59962;-79
2023/07/07 04:33:31;;;;;;;;;;;;;;;28.96;44.49;101877.21;107845;1253;71375;-79
2023/07/07 04:35:58;;;;;;;;;;;;;;;27.95;45.55;101881.33;107429;1254;124545;-80
2023/07/07 04:38:30;;;;;;;;;;;;;;;27.77;45.68;101881.30;107755;1254;59337;-81
2023/07/07 04:41:04;;;;;;;;;;;;;;;27.26;45.63;101883.60;107460;1256;124668;-81
2023/07/07 04:43:32;;;;;;;;;;;;;;;26.77;45.80;101885.91;107626;1254;67308;-82
2023/07/07 04:45:59;;;;;;;;;;;;;;;26.31;46.04;101886.95;107694;1257;70942;-81
2023/07/07 04:48:26;;;;;;;;;;;;;;;25.91;46.40;101889.98;107395;1254;125061;-80
2023/07/07 04:51:00;;;;;;;;;;;;;;;25.77;47.15;101890.79;107740;1254;60169;-80
2023/07/07 04:53:28;;;;;;;;;;;;;;;26.48;47.00;101893.41;107739;1254;124766;-82
2023/07/07 04:55:56;;;;;;;;;;;;;;;26.26;46.37;101895.89;107664;1257;64793;-82
2023/07/07 04:58:25;;;;;;;;;;;;;;;26.52;46.80;101897.84;107665;1257;72706;-79
2023/07/07 05:00:52;;;;;;;;;;;;;;;27.36;46.27;101899.20;108286;1257;123904;-80
2023/07/07 05:03:20;;;;;;;;;;;;;;;27.35;45.47;101905.55;108197;1258;60067;-80
2023/07/07 05:05:46;;;;;;;;;;;;;;;27.68;45.45;101905.37;107810;1254;124770;-80
2023/07/07 05:08:13;;;;;;;;;;;;;;;28.94;45.39;101906.39;108107;1259;67593;-80
2023/07/07 05:10:40;;;;;;;;;;;;;;;30.36;44.21;101907.98;107829;1256;124246;-80
2023/07/07 05:13:07;;;;;;;;;;;;;;;31.57;42.71;101911.64;107912;1258;59971;-80
2023/07/07 05:15:34;;;;;;;;;;;;;;;32.60;41.43;101903.96;107974;1259;59579;-79
2023/07/07 05:18:01;;;;;;;;;;;;;;;33.61;40.58;101901.89;107946;1257;124216;-80
2023/07/07 05:20:30;;;;;;;;;;;;;;;34.71;39.27;101906.38;108270;1256;67607;-79
2023/07/07 05:22:57;;;;;;;;;;;;;;;35.68;38.21;101907.30;108184;1254;125113;-79
2023/07/07 05:25:24;;;;;;;;;;;;;;;36.76;37.49;101902.48;108037;1258;61139;-81
2023/07/07 05:27:51;;;;;;;;;;;;;;;37.64;36.04;101899.77;107784;1260;59676;-80
2023/07/07 05:30:18;;;;;;;;;;;;;;;38.19;35.03;101899.80;107625;1257;125152;-79
2023/07/07 05:32:45;;;;;;;;;;;;;;;38.82;34.45;101899.33;107581;1255;59662;-81
2023/07/07 05:35:13;;;;;;;;;;;;;;;39.53;33.63;101906.15;107648;1254;124276;-81
2023/07/07 05:37:40;;;;;;;;;;;;;;;40.11;32.52;101910.66;107967;1254;59812;-81
2023/07/07 05:40:08;;;;;;;;;;;;;;;40.52;31.60;101912.61;107915;1254;59449;-80
2023/07/07 05:42:35;;;;;;;;;;;;;;;40.93;30.90;101912.06;107932;1255;124149;-80
2023/07/07 05:45:02;;;;;;;;;;;;;;;40.66;29.68;101911.64;108063;1254;59539;-80
2023/07/07 05:47:29;;;;;;;;;;;;;;;38.88;29.06;101907.05;107599;1254;124196;-82
2023/07/07 05:49:56;;;;;;;;;;;;;;;36.75;29.58;101908.71;107750;1256;61286;-81
2023/07/07 05:52:22;;;;;;;;;;;;;;;34.84;30.08;101908.29;107662;1254;59359;-81
2023/07/07 05:54:51;;;;;;;;;;;;;;;33.19;31.01;101910.63;107647;1260;124024;-80
2023/07/07 05:57:19;;;;;;;;;;;;;;;31.84;31.89;101909.70;107497;1253;59775;-82
2023/07/07 05:59:46;;;;;;;;;;;;;;;30.62;32.75;101906.77;107388;1259;124739;-81
2023/07/07 06:02:13;;;;;;;;;;;;;;;29.60;33.73;101907.23;107575;1260;62166;-80
2023/07/07 06:04:40;;;;;;;;;;;;;;;28.70;34.71;101912.61;107662;1254;124253;-80
2023/07/07 06:07:07;;;;;;;;;;;;;;;27.95;35.42;101917.04;107551;1259;73356;-81
2023/07/07 06:09:34;;;;;;;;;;;;;;;27.32;36.21;101918.96;107649;1254;67174;-80
2023/07/07 06:12:01;;;;;;;;;;;;;;;26.81;37.02;101920.41;107666;1259;124406;-81
2023/07/07 06:14:28;;;;;;;;;;;;;;;26.34;37.79;101921.27;108065;1256;59275;-79
2023/07/07 06:16:55;;;;;;;;;;;;;;;25.88;38.36;101922.95;107792;1260;124978;-79
2023/07/07 06:19:23;;;;;;;;;;;;;;;25.55;39.04;101924.83;108066;1259;73376;-80
2023/07/07 06:21:49;;;;;;;;;;;;;;;25.25;39.54;101928.24;107806;1260;66810;-80
2023/07/07 06:24:16;;;;;;;;;;;;;;;24.96;39.99;101930.49;107748;1258;124783;-79
2023/07/07 06:26:46;;;;;;;;;;;;;;;24.73;40.51;101929.06;107821;1259;59961;-81
2023/07/07 06:29:14;;;;;;;;;;;;;;;24.48;40.49;101930.66;107582;1261;124896;-80
2023/07/07 06:31:41;;;;;;;;;;;;;;;24.29;40.67;101932.71;107696;1255;74536;-82
2023/07/07 06:34:08;;;;;;;;;;;;;;;24.15;40.78;101935.03;107658;1260;65946;-81
2023/07/07 06:36:35;;;;;;;;;;;;;;;24.01;41.05;101932.52;107447;1253;124798;-80
2023/07/07 06:39:02;;;;;;;;;;;;;;;23.85;41.16;101936.64;108098;1254;60400;-80
2023/07/07 06:41:29;;;;;;;;;;;;;;;23.73;41.39;101933.88;107823;1259;124644;-80
2023/07/07 06:43:56;;;;;;;;;;;;;;;23.66;41.36;101935.94;107728;1260;75090;-82
2023/07/07 06:46:24;;;;;;;;;;;;;;;23.58;41.67;101939.77;107499;1262;66809;-80
2023/07/07 06:48:51;;;;;;;;;;;;;;;23.50;41.67;101936.80;107288;1254;124575;-80
2023/07/07 06:51:18;;;;;;;;;;;;;;;23.42;41.81;101931.85;107527;1257;59308;-81
2023/07/07 06:53:45;;;;;;;;;;;;;;;23.38;41.96;101936.20;107964;1254;124506;-82
2023/07/07 06:56:12;;;;;;;;;;;;;;;23.35;42.37;101938.19;108141;1256;74451;-80
2023/07/07 06:58:40;;;;;;;;;;;;;;;23.28;42.37;101934.86;107924;1254;124441;-80
2023/07/07 07:01:11;;;;;;;;;;;;;;;23.22;42.68;101936.17;107929;1254;72387;-81
2023/07/07 07:03:39;;;;;;;;;;;;;;;23.19;42.79;101937.45;108238;1257;61753;-81
2023/07/07 07:06:06;;;;;;;;;;;;;;;23.14;42.81;101937.13;108070;1256;124046;-81
2023/07/07 07:08:33;;;;;;;;;;;;;;;23.14;43.22;101946.98;107981;1254;73397;-81
2023/07/07 07:11:00;;;;;;;;;;;;;;;23.15;42.72;101943.58;108790;1257;66809;-81
2023/07/07 07:13:27;;;;;;;;;;;;;;;23.09;42.42;101944.15;109089;1254;72708;-81
2023/07/07 07:15:54;;;;;;;;;;;;;;;23.05;42.60;101947.93;109141;1254;59254;-81
2023/07/07 07:18:22;;;;;;;;;;;;;;;23.05;43.01;101946.33;108865;1254;123995;-81
2023/07/07 07:21:11;;;;;;;;;;;;;;;23.07;43.09;101945.77;109072;1257;75154;-85
2023/07/07 07:23:38;;;;;;;;;;;;;;;23.13;43.02;101950.92;107328;1254;124075;-85
2023/07/07 07:26:11;;;;;;;;;;;;;;;23.20;43.09;101949.07;107423;1254;72669;-85
2023/07/07 07:28:58;;;;;;;;;;;;;;;23.34;43.33;101952.52;107299;1254;60163;-85
2023/07/07 07:31:28;;;;;;;;;;;;;;;23.62;43.18;101955.50;107602;1254;60128;-85
2023/07/07 07:34:23;;;;;;;;;;;;;;;23.82;42.73;101953.16;107605;1254;74663;-85
2023/07/07 07:36:52;;;;;;;;;;;;;;;24.05;42.59;101958.11;107400;1254;124191;-86
2023/07/07 07:39:20;;;;;;;;;;;;;;;24.26;41.87;101960.36;107686;1254;71414;-86
2023/07/07 07:42:20;;;;;;;;;;;;;;;24.44;41.66;101964.09;107332;1254;125094;-90
2023/07/07 07:44:47;;;;;;;;;;;;;;;24.64;41.13;101961.86;107761;1259;59507;-87
2023/07/07 07:47:20;;;;;;;;;;;;;;;24.78;40.85;101960.21;107739;1254;124387;-87
2023/07/07 07:49:47;;;;;;;;;;;;;;;24.89;40.83;101960.23;107578;1254;66924;-86
2023/07/07 07:52:15;;;;;;;;;;;;;;;24.89;40.56;101964.54;107640;1254;72475;-87
2023/07/07 07:54:52;;;;;;;;;;;;;;;24.75;40.61;101958.65;107434;1254;124459;-87
2023/07/07 07:57:22;;;;;;;;;;;;;;;24.53;40.32;101962.90;107418;1254;61353;-86
2023/07/07 07:59:58;;;;;;;;;;;;;;;24.25;40.37;101958.77;107266;1254;124314;-87
2023/07/07 08:02:31;;;;;;;;;;;;;;;24.02;40.64;101958.15;107589;1254;66019;-89
2023/07/07 08:05:18;;;;;;;;;;;;;;;23.72;40.53;101955.40;107395;1254;124356;-89
2023/07/07 08:08:05;;;;;;;;;;;;;;;23.47;41.03;101957.27;107595;1254;59506;-86
2023/07/07 08:10:39;;;;;;;;;;;;;;;23.36;41.01;101953.59;107595;1254;61120;-87
2023/07/07 08:13:19;;;;;;;;;;;;;;;23.26;40.73;101949.74;107231;1257;124931;-86
2023/07/07 08:15:55;;;;;;;;;;;;;;;23.23;40.74;101949.59;107449;1254;65760;-85
2023/07/07 08:18:22;;;;;;;;;;;;;;;23.21;40.66;101952.13;107444;1254;124679;-87
2023/07/07 08:21:04;;;;;;;;;;;;;;;23.14;40.56;101954.86;107469;1254;60769;-86
2023/07/07 08:23:51;;;;;;;;;;;;;;;23.08;40.77;101949.34;107259;1254;124241;-83
2023/07/07 08:26:22;;;;;;;;;;;;;;;23.09;40.83;101949.52;107492;1254;73123;-84
2023/07/07 08:29:11;;;;;;;;;;;;;;;23.10;41.00;101950.79;107218;1258;124818;-84
2023/07/07 08:31:38;;;;;;;;;;;;;;;23.10;40.94;101952.20;107456;1254;71511;-80
2023/07/07 08:34:06;;;;;;;;;;;;;;;23.17;40.82;101956.44;107741;1260;60350;-80
2023/07/07 08:36:33;;;;;;;;;;;;;;;23.26;40.50;101957.27;107965;1254;124926;-80
2023/07/07 08:39:20;;;;;;;;;;;;;;;23.31;40.23;101949.89;108028;1254;73605;-80
2023/07/07 08:41:51;;;;;;;;;;;;;;;23.33;40.25;101945.38;108273;1257;125010;-82
2023/07/07 08:44:22;;;;;;;;;;;;;;;23.42;40.17;101949.41;108827;1254;71298;-84
2023/07/07 08:46:52;;;;;;;;;;;;;;;23.60;40.15;101948.00;107438;1253;125083;-83
2023/07/07 08:49:39;;;;;;;;;;;;;;;23.91;39.97;101949.82;107675;1254;61129;-86
2023/07/07 08:52:36;;;;;;;;;;;;;;;24.32;39.12;101954.73;107920;1254;74819;-83
2023/07/07 08:55:28;;;;;;;;;;;;;;;24.60;38.94;101954.55;107660;1254;124545;-84
2023/07/07 08:58:27;;;;;;;;;;;;;;;24.80;38.39;101955.16;107747;1254;70788;-84
2023/07/07 09:01:01;;;;;;;;;;;;;;;24.87;38.25;101947.17;107420;1253;124362;-84
2023/07/07 09:03:48;;;;;;;;;;;;;;;24.87;38.21;101949.85;107839;1254;60482;-84
2023/07/07 09:06:34;;;;;;;;;;;;;;;24.82;38.03;101952.42;107608;1254;124267;-84
2023/07/07 09:09:26;;;;;;;;;;;;;;;24.71;37.75;101952.06;107627;1253;65538;-86
2023/07/07 09:11:55;;;;;;;;;;;;;;;24.59;37.90;101947.92;107465;1254;124170;-84
2023/07/07 09:14:22;;;;;;;;;;;;;;;24.56;38.11;101946.35;107673;1254;61355;-84
2023/07/07 09:16:49;;;;;;;;;;;;;;;24.59;38.29;101947.22;107563;1254;124474;-85
2023/07/07 09:19:18;;;;;;;;;;;;;;;24.65;38.46;101949.28;107475;1254;74406;-85
2023/07/07 09:21:53;;;;;;;;;;;;;;;24.79;38.79;101947.63;107451;1254;66492;-85
2023/07/07 09:24:27;;;;;;;;;;;;;;;25.07;38.66;101941.63;107239;1254;124417;-84
2023/07/07 09:26:57;;;;;;;;;;;;;;;25.33;38.17;101947.34;107694;1253;60747;-85
2023/07/07 09:29:30;;;;;;;;;;;;;;;25.42;37.81;101945.18;107444;1254;124506;-85
2023/07/07 09:31:58;;;;;;;;;;;;;;;25.41;37.62;101945.92;107697;1254;74371;-85
2023/07/07 09:34:35;;;;;;;;;;;;;;;25.27;37.30;101948.88;107561;1254;65645;-85
2023/07/07 09:37:11;;;;;;;;;;;;;;;25.04;37.37;101950.30;107339;1254;124029;-84
2023/07/07 09:39:49;;;;;;;;;;;;;;;24.86;37.45;101951.67;107414;1257;61359;-87
2023/07/07 09:42:43;;;;;;;;;;;;;;;24.69;37.71;101951.02;107441;1254;125112;-84
2023/07/07 09:45:23;;;;;;;;;;;;;;;24.59;38.11;101943.62;107546;1254;74835;-83
2023/07/07 09:51:18;;;;;;;;;;;;;;;24.45;38.01;101954.19;107567;1254;72748;-86
2023/07/07 09:53:51;;;;;;;;;;;;;;;24.43;38.04;101951.16;107572;1254;124429;-87
2023/07/07 09:56:22;;;;;;;;;;;;;;;24.51;38.26;101950.17;107486;1254;60124;-85
2023/07/07 09:59:06;;;;;;;;;;;;;;;24.71;37.93;101951.17;107477;1257;124464;-87
2023/07/07 10:01:33;;;;;;;;;;;;;;;24.85;37.45;101960.83;107548;1254;66746;-86
2023/07/07 10:04:00;;;;;;;;;;;;;;;24.89;37.31;101960.77;107495;1256;72732;-84
2023/07/07 10:06:31;;;;;;;;;;;;;;;24.84;37.41;101955.83;107412;1254;124843;-85
2023/07/07 10:08:59;;;;;;;;;;;;;;;24.77;37.47;101951.79;107392;1256;60826;-84
2023/07/07 10:11:27;;;;;;;;;;;;;;;24.64;37.29;101951.80;107375;1254;124322;-86
2023/07/07 10:14:06;;;;;;;;;;;;;;;24.52;37.30;101958.06;107646;1257;67105;-85
2023/07/07 10:16:33;;;;;;;;;;;;;;;24.47;37.02;101955.96;107738;1255;71229;-85
2023/07/07 10:19:07;;;;;;;;;;;;;;;24.49;37.05;101950.92;107402;1254;125070;-85
2023/07/07 10:21:34;;;;;;;;;;;;;;;24.57;37.05;101944.38;107437;1254;60966;-85
2023/07/07 10:24:02;;;;;;;;;;;;;;;24.76;37.60;101947.32;107234;1256;124233;-84
2023/07/07 10:26:30;;;;;;;;;;;;;;;24.93;37.42;101946.88;107309;1257;67369;-85
2023/07/07 10:29:04;;;;;;;;;;;;;;;25.05;37.23;101945.61;107448;1256;124794;-84
2023/07/07 10:31:31;;;;;;;;;;;;;;;25.22;36.80;101941.02;107549;1257;59849;-85
2023/07/07 10:33:59;;;;;;;;;;;;;;;25.43;36.68;101937.63;107295;1260;60498;-84
2023/07/07 10:36:30;;;;;;;;;;;;;;;25.66;36.45;101928.21;107253;1257;124381;-84
2023/07/07 10:38:58;;;;;;;;;;;;;;;25.76;36.31;101925.67;107512;1255;66799;-85
2023/07/07 10:41:27;;;;;;;;;;;;;;;25.70;36.08;101921.84;107687;1254;125121;-85
2023/07/07 10:44:08;;;;;;;;;;;;;;;25.58;35.86;101924.77;107559;1254;61317;-85
2023/07/07 10:46:35;;;;;;;;;;;;;;;25.45;35.97;101928.23;107644;1254;60911;-85
2023/07/07 10:49:04;;;;;;;;;;;;;;;25.38;35.94;101932.50;107184;1254;385911;-84
2023/07/07 10:51:32;;;;;;;;;;;;;;;25.35;36.04;101928.43;107272;1255;65836;-84
2023/07/07 10:54:01;;;;;;;;;;;;;;;25.34;35.68;101931.85;107603;1254;124259;-85
2023/07/07 10:56:31;;;;;;;;;;;;;;;25.21;35.49;101934.20;107655;1254;59838;-84
2023/07/07 10:59:17;;;;;;;;;;;;;;;25.12;35.31;101934.37;107718;1254;125055;-84
2023/07/07 11:01:44;;;;;;;;;;;;;;;25.01;35.13;101934.90;107761;1254;75038;-84
2023/07/07 11:04:44;;;;;;;;;;;;;;;25.00;35.26;101932.95;107596;1256;67049;-84
2023/07/07 11:07:28;;;;;;;;;;;;;;;24.98;35.14;101929.73;107637;1254;124114;-84
2023/07/07 11:10:04;;;;;;;;;;;;;;;24.95;35.13;101929.60;107793;1257;62069;-84
2023/07/07 11:12:35;;;;;;;;;;;;;;;24.96;35.16;101926.91;107738;1257;124597;-85
2023/07/07 11:15:11;;;;;;;;;;;;;;;24.99;35.13;101927.73;107691;1254;75124;-85
2023/07/07 11:17:57;;;;;;;;;;;;;;;25.03;34.94;101924.81;107422;1254;124467;-84
2023/07/07 11:20:33;;;;;;;;;;;;;;;25.04;34.76;101926.59;107924;1254;70520;-85
2023/07/07 11:23:03;;;;;;;;;;;;;;;25.16;34.58;101922.61;107713;1257;124846;-84
2023/07/07 11:25:39;;;;;;;;;;;;;;;25.28;34.10;101920.28;107650;1254;60154;-85
2023/07/07 11:28:14;;;;;;;;;;;;;;;25.38;34.08;101927.30;107640;1254;74987;-85
2023/07/07 11:30:53;;;;;;;;;;;;;;;25.27;33.89;101930.72;107322;1254;124439;-84
2023/07/07 11:33:23;;;;;;;;;;;;;;;25.18;33.99;101933.17;107611;1254;72401;-85
2023/07/07 11:35:55;;;;;;;;;;;;;;;25.19;34.03;101927.78;107187;1257;181233;-84
2023/07/07 11:38:22;;;;;;;;;;;;;;;25.24;34.04;101930.57;107561;1254;61121;-84
2023/07/07 11:41:08;;;;;;;;;;;;;;;25.38;33.82;101921.56;107671;1253;124184;-83
2023/07/07 11:43:39;;;;;;;;;;;;;;;25.52;33.87;101912.85;107710;1254;67151;-85
2023/07/07 11:46:25;;;;;;;;;;;;;;;25.65;33.91;101912.59;107554;1254;71485;-84
2023/07/07 11:48:59;;;;;;;;;;;;;;;25.76;33.34;101909.68;107429;1254;124475;-84
2023/07/07 11:51:30;;;;;;;;;;;;;;;25.83;33.13;101910.63;107517;1253;61199;-84
2023/07/07 11:53:58;;;;;;;;;;;;;;;25.85;32.92;101907.70;107438;1254;124906;-84
2023/07/07 11:56:26;;;;;;;;;;;;;;;25.88;33.25;101907.27;107869;1254;65804;-84
2023/07/07 11:59:01;;;;;;;;;;;;;;;26.01;33.15;101906.70;107812;1257;124747;-84
2023/07/07 12:01:36;;;;;;;;;;;;;;;26.10;32.73;101903.99;107655;1254;62216;-83
2023/07/07 12:04:18;;;;;;;;;;;;;;;26.13;32.79;101904.27;107871;1253;60882;-85
2023/07/07 12:06:52;;;;;;;;;;;;;;;26.21;32.83;101907.89;107870;1256;124145;-85
2023/07/07 12:09:24;;;;;;;;;;;;;;;26.25;32.57;101913.55;107946;1254;65967;-86
2023/07/07 12:11:57;;;;;;;;;;;;;;;26.01;32.28;101914.59;107524;1254;124338;-83
2023/07/07 12:14:26;;;;;;;;;;;;;;;25.67;32.48;101916.52;107547;1254;60801;-83
2023/07/07 12:16:53;;;;;;;;;;;;;;;25.44;32.91;101909.22;107707;1253;124713;-83
2023/07/07 12:19:25;;;;;;;;;;;;;;;25.31;33.10;101914.67;107493;1254;73252;-83
2023/07/07 12:22:10;;;;;;;;;;;;;;;25.18;33.18;101916.30;107771;1253;67045;-85
2023/07/07 12:24:56;;;;;;;;;;;;;;;25.05;33.23;101914.20;107765;1254;124189;-83
2023/07/07 12:27:32;;;;;;;;;;;;;;;25.16;33.27;101910.77;107835;1254;61407;-84
2023/07/07 12:30:12;;;;;;;;;;;;;;;25.33;33.36;101912.30;107541;1256;124266;-84
2023/07/07 12:32:39;;;;;;;;;;;;;;;25.48;33.08;101915.98;107420;1254;74161;-84
2023/07/07 12:35:25;;;;;;;;;;;;;;;25.58;33.12;101908.41;107425;1254;124287;-84
2023/07/07 12:37:56;;;;;;;;;;;;;;;25.65;34.84;101917.10;107639;1254;71407;-85
2023/07/07 12:40:23;;;;;;;;;;;;;;;25.57;35.15;101920.48;107461;1254;61031;-84
2023/07/07 12:42:56;;;;;;;;;;;;;;;25.46;35.77;101925.90;107465;1252;124940;-84
2023/07/07 12:45:33;;;;;;;;;;;;;;;25.39;35.80;101931.22;107558;1253;74872;-83